sensor_id;sensor_type;location;lat;lon;timestamp;temperature;humidity
51655;DHT22;37732;53.106;7.030;2023-12-14T00:00:09;5.00;99.90
51655;DHT22;37732;53.106;7.030;2023-12-14T00:02:34;4.60;99.90
51655;DHT22;37732;53.106;7.030;2023-12-14T00:05:00;4.60;99.90
51655;DHT22;37732;53.106;7.030;2023-12-14T00:07:26;4.60;99.90
51655;DHT22;37732;53.106;7.030;2023-12-14T00:09:51;4.60;99.90
51655;DHT22;37732;53.106;7.030;2023-12-14T00:12:17;4.60;99.90
51655;DHT22;37732;53.106;7.030;2023-12-14T00:14:43;4.60;99.90
51655;DHT22;37732;53.106;7.030;2023-12-14T00:17:08;4.60;99.90
51655;DHT22;37732;53.106;7.030;2023-12-14T00:19:34;4.60;99.90
51655;DHT22;37732;53.106;7.030;2023-12-14T00:22:00;4.60;99.90
51655;DHT22;37732;53.106;7.030;2023-12-14T00:24:25;4.60;99.90
51655;DHT22;37732;53.106;7.030;2023-12-14T00:26:51;4.60;99.90
51655;DHT22;37732;53.106;7.030;2023-12-14T00:29:16;4.50;99.90
51655;DHT22;37732;53.106;7.030;2023-12-14T00:31:42;4.50;99.90
51655;DHT22;37732;53.106;7.030;2023-12-14T00:34:08;4.50;99.90
51655;DHT22;37732;53.106;7.030;2023-12-14T00:36:33;4.50;99.90
51655;DHT22;37732;53.106;7.030;2023-12-14T00:38:59;4.80;99.90
51655;DHT22;37732;53.106;7.030;2023-12-14T00:41:25;4.50;99.90
51655;DHT22;37732;53.106;7.030;2023-12-14T00:43:51;4.50;99.90
51655;DHT22;37732;53.106;7.030;2023-12-14T00:46:16;4.50;99.90
51655;DHT22;37732;53.106;7.030;2023-12-14T00:48:42;4.50;99.90
51655;DHT22;37732;53.106;7.030;2023-12-14T00:51:08;4.50;99.90
51655;DHT22;37732;53.106;7.030;2023-12-14T00:53:33;4.50;99.90
51655;DHT22;37732;53.106;7.030;2023-12-14T00:55:59;4.50;99.90
51655;DHT22;37732;53.106;7.030;2023-12-14T00:58:25;4.50;99.90
51655;DHT22;37732;53.106;7.030;2023-12-14T01:00:50;4.40;99.90
51655;DHT22;37732;53.106;7.030;2023-12-14T01:03:16;4.80;99.90
51655;DHT22;37732;53.106;7.030;2023-12-14T01:05:41;4.50;99.90
51655;DHT22;37732;53.106;7.030;2023-12-14T01:08:07;4.50;99.90
51655;DHT22;37732;53.106;7.030;2023-12-14T01:10:33;4.50;99.90
51655;DHT22;37732;53.106;7.030;2023-12-14T01:12:59;4.60;99.90
51655;DHT22;37732;53.106;7.030;2023-12-14T01:15:24;4.40;99.90
51655;DHT22;37732;53.106;7.030;2023-12-14T01:17:50;4.90;99.90
51655;DHT22;37732;53.106;7.030;2023-12-14T01:20:16;4.90;99.90
51655;DHT22;37732;53.106;7.030;2023-12-14T01:22:41;4.40;99.90
51655;DHT22;37732;53.106;7.030;2023-12-14T01:25:07;4.40;99.90
51655;DHT22;37732;53.106;7.030;2023-12-14T01:27:33;4.40;99.90
51655;DHT22;37732;53.106;7.030;2023-12-14T01:29:59;4.40;99.90
51655;DHT22;37732;53.106;7.030;2023-12-14T01:32:24;4.40;99.90
51655;DHT22;37732;53.106;7.030;2023-12-14T01:34:50;5.00;99.90
51655;DHT22;37732;53.106;7.030;2023-12-14T01:37:15;4.40;99.90
51655;DHT22;37732;53.106;7.030;2023-12-14T01:39:41;5.00;99.90
51655;DHT22;37732;53.106;7.030;2023-12-14T01:42:07;4.40;99.90
51655;DHT22;37732;53.106;7.030;2023-12-14T01:44:33;4.70;99.90
51655;DHT22;37732;53.106;7.030;2023-12-14T01:46:59;4.40;99.90
51655;DHT22;37732;53.106;7.030;2023-12-14T01:49:24;5.00;99.90
51655;DHT22;37732;53.106;7.030;2023-12-14T01:51:50;4.40;99.90
51655;DHT22;37732;53.106;7.030;2023-12-14T01:54:15;4.40;99.90
51655;DHT22;37732;53.106;7.030;2023-12-14T01:56:41;4.40;99.90
51655;DHT22;37732;53.106;7.030;2023-12-14T01:59:07;4.70;99.90
51655;DHT22;37732;53.106;7.030;2023-12-14T02:04:01;4.40;99.90
51655;DHT22;37732;53.106;7.030;2023-12-14T02:06:27;4.40;99.90
51655;DHT22;37732;53.106;7.030;2023-12-14T02:08:53;4.40;99.90
51655;DHT22;37732;53.106;7.030;2023-12-14T02:11:18;4.70;99.90
51655;DHT22;37732;53.106;7.030;2023-12-14T02:13:53;4.40;99.90
51655;DHT22;37732;53.106;7.030;2023-12-14T02:16:19;4.50;99.90
51655;DHT22;37732;53.106;7.030;2023-12-14T02:22:19;4.40;99.90
51655;DHT22;37732;53.106;7.030;2023-12-14T02:24:57;4.50;99.90
51655;DHT22;37732;53.106;7.030;2023-12-14T02:27:57;4.40;99.90
51655;DHT22;37732;53.106;7.030;2023-12-14T02:30:23;4.40;99.90
51655;DHT22;37732;53.106;7.030;2023-12-14T02:33:07;4.40;99.90
51655;DHT22;37732;53.106;7.030;2023-12-14T02:35:59;4.30;99.90
51655;DHT22;37732;53.106;7.030;2023-12-14T02:38:25;4.40;99.90
51655;DHT22;37732;53.106;7.030;2023-12-14T02:48:12;4.40;99.90
51655;DHT22;37732;53.106;7.030;2023-12-14T02:50:56;4.30;99.90
51655;DHT22;37732;53.106;7.030;2023-12-14T02:53:22;4.40;99.90
51655;DHT22;37732;53.106;7.030;2023-12-14T02:55:48;5.00;99.90
51655;DHT22;37732;53.106;7.030;2023-12-14T02:58:39;4.30;99.90
51655;DHT22;37732;53.106;7.030;2023-12-14T03:03:34;4.30;99.90
51655;DHT22;37732;53.106;7.030;2023-12-14T03:06:03;4.40;99.90
51655;DHT22;37732;53.106;7.030;2023-12-14T03:08:29;4.30;99.90
51655;DHT22;37732;53.106;7.030;2023-12-14T03:10:54;4.40;99.90
51655;DHT22;37732;53.106;7.030;2023-12-14T03:13:20;5.10;99.90
51655;DHT22;37732;53.106;7.030;2023-12-14T03:15:46;4.40;99.90
51655;DHT22;37732;53.106;7.030;2023-12-14T03:18:14;4.40;99.90
51655;DHT22;37732;53.106;7.030;2023-12-14T03:20:40;4.60;99.90
51655;DHT22;37732;53.106;7.030;2023-12-14T03:23:08;4.40;99.90
51655;DHT22;37732;53.106;7.030;2023-12-14T03:25:34;4.40;99.90
51655;DHT22;37732;53.106;7.030;2023-12-14T03:28:00;4.30;99.90
51655;DHT22;37732;53.106;7.030;2023-12-14T03:30:25;4.30;99.90
51655;DHT22;37732;53.106;7.030;2023-12-14T03:32:52;4.30;99.90
51655;DHT22;37732;53.106;7.030;2023-12-14T03:35:19;4.40;99.90
51655;DHT22;37732;53.106;7.030;2023-12-14T03:37:45;5.00;99.90
51655;DHT22;37732;53.106;7.030;2023-12-14T03:40:10;4.60;99.90
51655;DHT22;37732;53.106;7.030;2023-12-14T03:42:36;4.40;99.90
51655;DHT22;37732;53.106;7.030;2023-12-14T03:45:02;4.40;99.90
51655;DHT22;37732;53.106;7.030;2023-12-14T03:47:27;4.30;99.90
51655;DHT22;37732;53.106;7.030;2023-12-14T03:49:53;4.30;99.90
51655;DHT22;37732;53.106;7.030;2023-12-14T03:52:19;4.40;99.90
51655;DHT22;37732;53.106;7.030;2023-12-14T03:54:44;4.60;99.90
51655;DHT22;37732;53.106;7.030;2023-12-14T03:57:10;4.50;99.90
51655;DHT22;37732;53.106;7.030;2023-12-14T03:59:39;4.30;99.90
51655;DHT22;37732;53.106;7.030;2023-12-14T04:02:05;4.30;99.90
51655;DHT22;37732;53.106;7.030;2023-12-14T04:04:31;4.40;99.90
51655;DHT22;37732;53.106;7.030;2023-12-14T04:06:57;4.50;99.90
51655;DHT22;37732;53.106;7.030;2023-12-14T04:09:22;4.30;99.90
51655;DHT22;37732;53.106;7.030;2023-12-14T04:11:48;5.10;99.90
51655;DHT22;37732;53.106;7.030;2023-12-14T04:14:14;4.30;99.90
51655;DHT22;37732;53.106;7.030;2023-12-14T04:16:39;4.30;99.90
51655;DHT22;37732;53.106;7.030;2023-12-14T04:19:05;4.30;99.90
51655;DHT22;37732;53.106;7.030;2023-12-14T04:21:36;4.50;99.90
51655;DHT22;37732;53.106;7.030;2023-12-14T04:24:01;4.30;99.90
51655;DHT22;37732;53.106;7.030;2023-12-14T04:26:27;4.30;99.90
51655;DHT22;37732;53.106;7.030;2023-12-14T04:28:53;4.80;99.90
51655;DHT22;37732;53.106;7.030;2023-12-14T04:31:19;4.40;99.90
51655;DHT22;37732;53.106;7.030;2023-12-14T04:33:44;4.30;99.90
51655;DHT22;37732;53.106;7.030;2023-12-14T04:36:10;4.30;99.90
51655;DHT22;37732;53.106;7.030;2023-12-14T04:38:36;4.30;99.90
51655;DHT22;37732;53.106;7.030;2023-12-14T04:41:01;4.30;99.90
51655;DHT22;37732;53.106;7.030;2023-12-14T04:43:27;4.30;99.90
51655;DHT22;37732;53.106;7.030;2023-12-14T04:45:57;4.90;99.90
51655;DHT22;37732;53.106;7.030;2023-12-14T04:48:22;4.30;99.90
51655;DHT22;37732;53.106;7.030;2023-12-14T04:50:48;4.30;99.90
51655;DHT22;37732;53.106;7.030;2023-12-14T04:53:14;4.40;99.90
51655;DHT22;37732;53.106;7.030;2023-12-14T04:55:40;4.30;99.90
51655;DHT22;37732;53.106;7.030;2023-12-14T04:58:08;4.30;99.90
51655;DHT22;37732;53.106;7.030;2023-12-14T05:00:35;5.00;99.90
51655;DHT22;37732;53.106;7.030;2023-12-14T05:03:01;4.30;99.90
51655;DHT22;37732;53.106;7.030;2023-12-14T05:05:27;4.60;99.90
51655;DHT22;37732;53.106;7.030;2023-12-14T05:07:52;4.30;99.90
51655;DHT22;37732;53.106;7.030;2023-12-14T05:10:18;4.20;99.90
51655;DHT22;37732;53.106;7.030;2023-12-14T05:12:44;4.30;99.90
51655;DHT22;37732;53.106;7.030;2023-12-14T05:15:10;4.30;99.90
51655;DHT22;37732;53.106;7.030;2023-12-14T05:17:36;4.30;99.90
51655;DHT22;37732;53.106;7.030;2023-12-14T05:20:04;4.30;99.90
51655;DHT22;37732;53.106;7.030;2023-12-14T05:22:30;4.30;99.90
51655;DHT22;37732;53.106;7.030;2023-12-14T05:24:55;4.30;99.90
51655;DHT22;37732;53.106;7.030;2023-12-14T05:27:21;4.30;99.90
51655;DHT22;37732;53.106;7.030;2023-12-14T05:29:47;4.30;99.90
51655;DHT22;37732;53.106;7.030;2023-12-14T05:32:12;4.30;99.90
51655;DHT22;37732;53.106;7.030;2023-12-14T05:34:41;4.30;99.90
51655;DHT22;37732;53.106;7.030;2023-12-14T05:37:07;4.30;99.90
51655;DHT22;37732;53.106;7.030;2023-12-14T05:39:33;4.30;99.90
51655;DHT22;37732;53.106;7.030;2023-12-14T05:41:58;4.30;99.90
51655;DHT22;37732;53.106;7.030;2023-12-14T05:44:24;4.30;99.90
51655;DHT22;37732;53.106;7.030;2023-12-14T05:46:50;5.20;99.90
51655;DHT22;37732;53.106;7.030;2023-12-14T05:49:16;4.40;99.90
51655;DHT22;37732;53.106;7.030;2023-12-14T05:51:42;4.70;99.90
51655;DHT22;37732;53.106;7.030;2023-12-14T05:54:08;4.70;99.90
51655;DHT22;37732;53.106;7.030;2023-12-14T05:56:34;4.40;99.90
51655;DHT22;37732;53.106;7.030;2023-12-14T05:59:00;4.50;99.90
51655;DHT22;37732;53.106;7.030;2023-12-14T06:01:26;4.40;99.90
51655;DHT22;37732;53.106;7.030;2023-12-14T06:03:53;4.90;99.90
51655;DHT22;37732;53.106;7.030;2023-12-14T06:06:19;4.40;99.90
51655;DHT22;37732;53.106;7.030;2023-12-14T06:08:45;4.70;99.90
51655;DHT22;37732;53.106;7.030;2023-12-14T06:11:11;4.60;99.90
51655;DHT22;37732;53.106;7.030;2023-12-14T06:13:36;4.50;99.90
51655;DHT22;37732;53.106;7.030;2023-12-14T06:16:03;4.40;99.90
51655;DHT22;37732;53.106;7.030;2023-12-14T06:18:30;4.40;99.90
51655;DHT22;37732;53.106;7.030;2023-12-14T06:20:55;4.50;99.90
51655;DHT22;37732;53.106;7.030;2023-12-14T06:23:22;4.40;99.90
51655;DHT22;37732;53.106;7.030;2023-12-14T06:25:47;4.40;99.90
51655;DHT22;37732;53.106;7.030;2023-12-14T06:28:13;4.50;99.90
51655;DHT22;37732;53.106;7.030;2023-12-14T06:30:39;4.70;99.90
51655;DHT22;37732;53.106;7.030;2023-12-14T06:33:05;4.50;99.90
51655;DHT22;37732;53.106;7.030;2023-12-14T06:35:31;4.50;99.90
51655;DHT22;37732;53.106;7.030;2023-12-14T06:37:56;4.50;99.90
51655;DHT22;37732;53.106;7.030;2023-12-14T06:40:22;4.50;99.90
51655;DHT22;37732;53.106;7.030;2023-12-14T06:42:48;4.50;99.90
51655;DHT22;37732;53.106;7.030;2023-12-14T06:45:15;4.50;99.90
51655;DHT22;37732;53.106;7.030;2023-12-14T06:47:41;4.50;99.90
51655;DHT22;37732;53.106;7.030;2023-12-14T06:50:09;4.50;99.90
51655;DHT22;37732;53.106;7.030;2023-12-14T06:52:34;4.50;99.90
51655;DHT22;37732;53.106;7.030;2023-12-14T06:55:00;4.50;99.90
51655;DHT22;37732;53.106;7.030;2023-12-14T06:57:26;4.50;99.90
51655;DHT22;37732;53.106;7.030;2023-12-14T06:59:52;4.50;99.90
51655;DHT22;37732;53.106;7.030;2023-12-14T07:02:17;4.50;99.90
51655;DHT22;37732;53.106;7.030;2023-12-14T07:04:44;4.50;99.90
51655;DHT22;37732;53.106;7.030;2023-12-14T07:07:09;4.50;99.90
51655;DHT22;37732;53.106;7.030;2023-12-14T07:09:35;4.50;99.90
51655;DHT22;37732;53.106;7.030;2023-12-14T07:12:01;4.50;99.90
51655;DHT22;37732;53.106;7.030;2023-12-14T07:14:28;4.50;99.90
51655;DHT22;37732;53.106;7.030;2023-12-14T07:16:53;4.50;99.90
51655;DHT22;37732;53.106;7.030;2023-12-14T07:19:19;4.90;99.90
51655;DHT22;37732;53.106;7.030;2023-12-14T07:21:45;4.60;99.90
51655;DHT22;37732;53.106;7.030;2023-12-14T07:24:11;4.40;99.90
51655;DHT22;37732;53.106;7.030;2023-12-14T07:26:36;4.40;99.90
51655;DHT22;37732;53.106;7.030;2023-12-14T07:29:02;4.60;99.90
51655;DHT22;37732;53.106;7.030;2023-12-14T07:31:28;4.40;99.90
51655;DHT22;37732;53.106;7.030;2023-12-14T07:33:55;4.40;99.90
51655;DHT22;37732;53.106;7.030;2023-12-14T07:36:21;4.60;99.90
51655;DHT22;37732;53.106;7.030;2023-12-14T07:38:48;4.40;99.90
51655;DHT22;37732;53.106;7.030;2023-12-14T07:41:13;4.40;99.90
51655;DHT22;37732;53.106;7.030;2023-12-14T07:43:39;4.50;99.90
51655;DHT22;37732;53.106;7.030;2023-12-14T07:46:05;4.40;99.90
51655;DHT22;37732;53.106;7.030;2023-12-14T07:48:30;4.40;99.90
51655;DHT22;37732;53.106;7.030;2023-12-14T07:50:56;4.40;99.90
51655;DHT22;37732;53.106;7.030;2023-12-14T07:53:22;4.40;99.90
51655;DHT22;37732;53.106;7.030;2023-12-14T07:55:47;4.40;99.90
51655;DHT22;37732;53.106;7.030;2023-12-14T07:58:13;4.40;99.90
51655;DHT22;37732;53.106;7.030;2023-12-14T08:00:39;4.50;99.90
51655;DHT22;37732;53.106;7.030;2023-12-14T08:03:04;4.40;99.90
51655;DHT22;37732;53.106;7.030;2023-12-14T08:05:30;4.40;99.90
51655;DHT22;37732;53.106;7.030;2023-12-14T08:07:57;4.40;99.90
51655;DHT22;37732;53.106;7.030;2023-12-14T08:10:23;5.10;99.90
51655;DHT22;37732;53.106;7.030;2023-12-14T08:12:49;5.40;99.90
51655;DHT22;37732;53.106;7.030;2023-12-14T08:15:16;4.50;99.90
51655;DHT22;37732;53.106;7.030;2023-12-14T08:17:42;5.50;99.90
51655;DHT22;37732;53.106;7.030;2023-12-14T08:20:09;4.50;99.90
51655;DHT22;37732;53.106;7.030;2023-12-14T08:22:36;4.50;99.90
51655;DHT22;37732;53.106;7.030;2023-12-14T08:25:02;4.50;99.90
51655;DHT22;37732;53.106;7.030;2023-12-14T08:27:32;4.50;99.90
51655;DHT22;37732;53.106;7.030;2023-12-14T08:29:57;5.50;99.90
51655;DHT22;37732;53.106;7.030;2023-12-14T08:32:23;4.50;99.90
51655;DHT22;37732;53.106;7.030;2023-12-14T08:34:49;5.00;99.90
51655;DHT22;37732;53.106;7.030;2023-12-14T08:37:14;4.60;99.90
51655;DHT22;37732;53.106;7.030;2023-12-14T08:39:40;4.60;99.90
51655;DHT22;37732;53.106;7.030;2023-12-14T08:42:06;4.50;99.90
51655;DHT22;37732;53.106;7.030;2023-12-14T08:44:31;5.10;99.90
51655;DHT22;37732;53.106;7.030;2023-12-14T08:46:57;4.60;99.90
51655;DHT22;37732;53.106;7.030;2023-12-14T08:49:23;4.60;99.90
51655;DHT22;37732;53.106;7.030;2023-12-14T08:51:48;4.60;99.90
51655;DHT22;37732;53.106;7.030;2023-12-14T08:54:14;4.60;99.90
51655;DHT22;37732;53.106;7.030;2023-12-14T08:56:40;4.60;99.90
51655;DHT22;37732;53.106;7.030;2023-12-14T08:59:05;4.60;99.90
51655;DHT22;37732;53.106;7.030;2023-12-14T09:01:32;4.60;99.90
51655;DHT22;37732;53.106;7.030;2023-12-14T09:03:59;4.60;99.90
51655;DHT22;37732;53.106;7.030;2023-12-14T09:06:24;5.20;99.90
51655;DHT22;37732;53.106;7.030;2023-12-14T09:08:50;5.20;99.90
51655;DHT22;37732;53.106;7.030;2023-12-14T09:11:15;4.70;99.90
51655;DHT22;37732;53.106;7.030;2023-12-14T09:13:42;5.30;99.90
51655;DHT22;37732;53.106;7.030;2023-12-14T09:16:08;5.60;99.90
51655;DHT22;37732;53.106;7.030;2023-12-14T09:18:34;4.70;99.90
51655;DHT22;37732;53.106;7.030;2023-12-14T09:20:59;4.80;99.90
51655;DHT22;37732;53.106;7.030;2023-12-14T09:23:25;4.70;99.90
51655;DHT22;37732;53.106;7.030;2023-12-14T09:25:51;4.70;99.90
51655;DHT22;37732;53.106;7.030;2023-12-14T09:28:17;4.80;99.90
51655;DHT22;37732;53.106;7.030;2023-12-14T09:30:42;4.70;99.90
51655;DHT22;37732;53.106;7.030;2023-12-14T09:33:08;4.70;99.90
51655;DHT22;37732;53.106;7.030;2023-12-14T09:35:35;5.20;99.90
51655;DHT22;37732;53.106;7.030;2023-12-14T09:38:03;4.80;99.90
51655;DHT22;37732;53.106;7.030;2023-12-14T09:40:29;4.80;99.90
51655;DHT22;37732;53.106;7.030;2023-12-14T09:42:55;4.70;99.90
51655;DHT22;37732;53.106;7.030;2023-12-14T09:45:24;5.10;99.90
51655;DHT22;37732;53.106;7.030;2023-12-14T09:47:53;4.90;99.90
51655;DHT22;37732;53.106;7.030;2023-12-14T09:50:20;4.90;99.90
51655;DHT22;37732;53.106;7.030;2023-12-14T09:52:46;4.90;99.90
51655;DHT22;37732;53.106;7.030;2023-12-14T09:55:15;4.90;99.90
51655;DHT22;37732;53.106;7.030;2023-12-14T09:57:40;5.00;99.90
51655;DHT22;37732;53.106;7.030;2023-12-14T10:00:06;4.90;99.90
51655;DHT22;37732;53.106;7.030;2023-12-14T10:02:36;5.00;99.90
51655;DHT22;37732;53.106;7.030;2023-12-14T10:05:02;5.00;99.90
51655;DHT22;37732;53.106;7.030;2023-12-14T10:07:28;5.00;99.90
51655;DHT22;37732;53.106;7.030;2023-12-14T10:09:53;5.00;99.90
51655;DHT22;37732;53.106;7.030;2023-12-14T10:12:21;5.10;99.90
51655;DHT22;37732;53.106;7.030;2023-12-14T10:15:00;5.10;99.90
51655;DHT22;37732;53.106;7.030;2023-12-14T10:17:26;5.10;99.90
51655;DHT22;37732;53.106;7.030;2023-12-14T10:19:57;5.20;99.90
51655;DHT22;37732;53.106;7.030;2023-12-14T10:22:26;5.20;99.90
51655;DHT22;37732;53.106;7.030;2023-12-14T10:24:53;5.20;99.90
51655;DHT22;37732;53.106;7.030;2023-12-14T10:27:19;5.30;99.90
51655;DHT22;37732;53.106;7.030;2023-12-14T10:29:46;5.30;99.90
51655;DHT22;37732;53.106;7.030;2023-12-14T10:32:12;5.30;99.90
51655;DHT22;37732;53.106;7.030;2023-12-14T10:34:38;5.30;99.90
51655;DHT22;37732;53.106;7.030;2023-12-14T10:37:05;5.40;99.90
51655;DHT22;37732;53.106;7.030;2023-12-14T10:39:36;5.40;99.90
51655;DHT22;37732;53.106;7.030;2023-12-14T10:42:03;5.40;99.90
51655;DHT22;37732;53.106;7.030;2023-12-14T10:44:32;5.40;99.90
51655;DHT22;37732;53.106;7.030;2023-12-14T10:47:01;5.40;99.90
51655;DHT22;37732;53.106;7.030;2023-12-14T10:49:29;5.40;99.90
51655;DHT22;37732;53.106;7.030;2023-12-14T10:51:57;5.50;99.90
51655;DHT22;37732;53.106;7.030;2023-12-14T10:54:24;5.50;99.90
51655;DHT22;37732;53.106;7.030;2023-12-14T10:56:56;5.50;99.90
51655;DHT22;37732;53.106;7.030;2023-12-14T10:59:24;5.50;99.90
51655;DHT22;37732;53.106;7.030;2023-12-14T11:01:53;5.60;99.90
51655;DHT22;37732;53.106;7.030;2023-12-14T11:04:21;5.60;99.90
51655;DHT22;37732;53.106;7.030;2023-12-14T11:06:47;5.60;99.90
51655;DHT22;37732;53.106;7.030;2023-12-14T11:09:17;5.60;99.90
51655;DHT22;37732;53.106;7.030;2023-12-14T11:14:19;5.90;99.90
51655;DHT22;37732;53.106;7.030;2023-12-14T11:16:48;5.70;99.90
51655;DHT22;37732;53.106;7.030;2023-12-14T11:19:24;5.70;99.90
51655;DHT22;37732;53.106;7.030;2023-12-14T11:24:32;5.90;99.90
51655;DHT22;37732;53.106;7.030;2023-12-14T11:26:58;5.80;99.90
51655;DHT22;37732;53.106;7.030;2023-12-14T11:29:25;6.60;99.90
51655;DHT22;37732;53.106;7.030;2023-12-14T11:31:52;6.00;99.90
51655;DHT22;37732;53.106;7.030;2023-12-14T11:34:17;5.90;99.90
51655;DHT22;37732;53.106;7.030;2023-12-14T11:36:43;5.90;99.90
51655;DHT22;37732;53.106;7.030;2023-12-14T11:39:11;5.90;99.90
51655;DHT22;37732;53.106;7.030;2023-12-14T11:41:37;6.00;99.90
51655;DHT22;37732;53.106;7.030;2023-12-14T11:44:04;6.00;99.90
51655;DHT22;37732;53.106;7.030;2023-12-14T11:46:30;6.00;99.90
51655;DHT22;37732;53.106;7.030;2023-12-14T11:48:57;6.00;99.90
51655;DHT22;37732;53.106;7.030;2023-12-14T11:51:24;5.90;99.90
51655;DHT22;37732;53.106;7.030;2023-12-14T11:53:51;5.90;99.90
51655;DHT22;37732;53.106;7.030;2023-12-14T11:56:18;6.10;99.90
51655;DHT22;37732;53.106;7.030;2023-12-14T11:58:44;5.90;99.90
51655;DHT22;37732;53.106;7.030;2023-12-14T12:01:15;5.90;99.90
51655;DHT22;37732;53.106;7.030;2023-12-14T12:03:42;5.80;99.90
51655;DHT22;37732;53.106;7.030;2023-12-14T12:06:23;5.70;99.90
51655;DHT22;37732;53.106;7.030;2023-12-14T12:08:49;5.70;99.90
51655;DHT22;37732;53.106;7.030;2023-12-14T12:11:19;5.70;99.90
51655;DHT22;37732;53.106;7.030;2023-12-14T12:13:53;5.70;99.90
51655;DHT22;37732;53.106;7.030;2023-12-14T12:16:19;5.80;99.90
51655;DHT22;37732;53.106;7.030;2023-12-14T12:18:45;5.70;99.90
51655;DHT22;37732;53.106;7.030;2023-12-14T12:21:11;6.10;99.90
51655;DHT22;37732;53.106;7.030;2023-12-14T12:23:37;5.80;99.90
51655;DHT22;37732;53.106;7.030;2023-12-14T12:26:04;5.80;99.90
51655;DHT22;37732;53.106;7.030;2023-12-14T12:28:30;5.80;99.90
51655;DHT22;37732;53.106;7.030;2023-12-14T12:30:56;5.80;99.90
51655;DHT22;37732;53.106;7.030;2023-12-14T12:33:22;5.80;99.90
51655;DHT22;37732;53.106;7.030;2023-12-14T12:35:47;5.80;99.90
51655;DHT22;37732;53.106;7.030;2023-12-14T12:38:13;5.80;99.90
51655;DHT22;37732;53.106;7.030;2023-12-14T12:40:39;5.80;99.90
51655;DHT22;37732;53.106;7.030;2023-12-14T12:43:05;5.80;99.90
51655;DHT22;37732;53.106;7.030;2023-12-14T12:45:31;5.70;99.90
51655;DHT22;37732;53.106;7.030;2023-12-14T12:47:57;6.20;99.90
51655;DHT22;37732;53.106;7.030;2023-12-14T12:50:23;5.90;99.90
51655;DHT22;37732;53.106;7.030;2023-12-14T12:52:49;5.70;99.90
51655;DHT22;37732;53.106;7.030;2023-12-14T12:55:16;5.70;99.90
51655;DHT22;37732;53.106;7.030;2023-12-14T12:57:42;5.70;99.90
51655;DHT22;37732;53.106;7.030;2023-12-14T13:00:08;5.70;99.90
51655;DHT22;37732;53.106;7.030;2023-12-14T13:02:40;5.70;99.90
51655;DHT22;37732;53.106;7.030;2023-12-14T13:05:07;5.80;99.90
51655;DHT22;37732;53.106;7.030;2023-12-14T13:07:37;5.70;99.90
51655;DHT22;37732;53.106;7.030;2023-12-14T13:10:04;5.80;99.90
51655;DHT22;37732;53.106;7.030;2023-12-14T13:12:31;5.70;99.90
51655;DHT22;37732;53.106;7.030;2023-12-14T13:14:57;5.80;99.90
51655;DHT22;37732;53.106;7.030;2023-12-14T13:17:23;5.80;99.90
51655;DHT22;37732;53.106;7.030;2023-12-14T13:19:49;5.80;99.90
51655;DHT22;37732;53.106;7.030;2023-12-14T13:22:15;6.20;99.90
51655;DHT22;37732;53.106;7.030;2023-12-14T13:24:41;5.90;99.90
51655;DHT22;37732;53.106;7.030;2023-12-14T13:27:06;6.00;99.90
51655;DHT22;37732;53.106;7.030;2023-12-14T13:29:32;5.90;99.90
51655;DHT22;37732;53.106;7.030;2023-12-14T13:32:00;5.90;99.90
51655;DHT22;37732;53.106;7.030;2023-12-14T13:34:26;5.90;99.90
51655;DHT22;37732;53.106;7.030;2023-12-14T13:36:52;5.90;99.90
51655;DHT22;37732;53.106;7.030;2023-12-14T13:39:17;5.90;99.90
51655;DHT22;37732;53.106;7.030;2023-12-14T13:41:43;5.90;99.90
51655;DHT22;37732;53.106;7.030;2023-12-14T13:44:08;5.90;99.90
51655;DHT22;37732;53.106;7.030;2023-12-14T13:46:34;6.00;99.90
51655;DHT22;37732;53.106;7.030;2023-12-14T13:49:00;6.00;99.90
51655;DHT22;37732;53.106;7.030;2023-12-14T13:51:28;5.90;99.90
51655;DHT22;37732;53.106;7.030;2023-12-14T13:53:53;5.90;99.90
51655;DHT22;37732;53.106;7.030;2023-12-14T13:56:19;5.90;99.90
51655;DHT22;37732;53.106;7.030;2023-12-14T13:58:45;5.90;99.90
51655;DHT22;37732;53.106;7.030;2023-12-14T14:01:10;5.90;99.90
51655;DHT22;37732;53.106;7.030;2023-12-14T14:03:36;5.90;99.90
51655;DHT22;37732;53.106;7.030;2023-12-14T14:06:05;5.90;99.90
51655;DHT22;37732;53.106;7.030;2023-12-14T14:08:32;5.90;99.90
51655;DHT22;37732;53.106;7.030;2023-12-14T14:10:58;5.90;99.90
51655;DHT22;37732;53.106;7.030;2023-12-14T14:13:24;5.80;99.90
51655;DHT22;37732;53.106;7.030;2023-12-14T14:15:50;5.90;99.90
51655;DHT22;37732;53.106;7.030;2023-12-14T14:18:16;5.80;99.90
51655;DHT22;37732;53.106;7.030;2023-12-14T14:20:42;5.80;99.90
51655;DHT22;37732;53.106;7.030;2023-12-14T14:23:07;5.80;99.90
51655;DHT22;37732;53.106;7.030;2023-12-14T14:25:33;5.90;99.90
51655;DHT22;37732;53.106;7.030;2023-12-14T14:27:59;6.20;99.90
51655;DHT22;37732;53.106;7.030;2023-12-14T14:30:25;4.90;99.90
51655;DHT22;37732;53.106;7.030;2023-12-14T14:32:51;5.80;99.90
51655;DHT22;37732;53.106;7.030;2023-12-14T14:35:18;5.80;99.90
51655;DHT22;37732;53.106;7.030;2023-12-14T14:37:43;5.80;99.90
51655;DHT22;37732;53.106;7.030;2023-12-14T14:40:12;5.80;99.90
51655;DHT22;37732;53.106;7.030;2023-12-14T14:42:39;5.80;99.90
51655;DHT22;37732;53.106;7.030;2023-12-14T14:45:06;5.80;99.90
51655;DHT22;37732;53.106;7.030;2023-12-14T14:47:33;5.70;99.90
51655;DHT22;37732;53.106;7.030;2023-12-14T14:49:59;5.70;99.90
51655;DHT22;37732;53.106;7.030;2023-12-14T14:52:29;5.80;99.90
51655;DHT22;37732;53.106;7.030;2023-12-14T14:54:55;5.70;99.90
51655;DHT22;37732;53.106;7.030;2023-12-14T14:57:21;5.70;99.90
51655;DHT22;37732;53.106;7.030;2023-12-14T14:59:46;5.70;99.90
51655;DHT22;37732;53.106;7.030;2023-12-14T15:02:12;5.60;99.90
51655;DHT22;37732;53.106;7.030;2023-12-14T15:04:38;5.60;99.90
51655;DHT22;37732;53.106;7.030;2023-12-14T15:07:03;5.60;99.90
51655;DHT22;37732;53.106;7.030;2023-12-14T15:09:29;5.60;99.90
51655;DHT22;37732;53.106;7.030;2023-12-14T15:11:55;5.60;99.90
51655;DHT22;37732;53.106;7.030;2023-12-14T15:14:20;5.50;99.90
51655;DHT22;37732;53.106;7.030;2023-12-14T15:16:46;5.60;99.90
51655;DHT22;37732;53.106;7.030;2023-12-14T15:19:12;5.50;99.90
51655;DHT22;37732;53.106;7.030;2023-12-14T15:21:39;5.40;99.90
51655;DHT22;37732;53.106;7.030;2023-12-14T15:24:05;5.40;99.90
51655;DHT22;37732;53.106;7.030;2023-12-14T15:26:31;5.40;99.90
51655;DHT22;37732;53.106;7.030;2023-12-14T15:28:58;5.30;99.90
51655;DHT22;37732;53.106;7.030;2023-12-14T15:31:24;5.30;99.90
51655;DHT22;37732;53.106;7.030;2023-12-14T15:33:50;5.40;99.90
51655;DHT22;37732;53.106;7.030;2023-12-14T15:36:16;5.20;99.90
51655;DHT22;37732;53.106;7.030;2023-12-14T15:38:41;5.10;99.90
51655;DHT22;37732;53.106;7.030;2023-12-14T15:41:12;5.10;99.90
51655;DHT22;37732;53.106;7.030;2023-12-14T15:43:38;5.10;99.90
51655;DHT22;37732;53.106;7.030;2023-12-14T15:46:03;5.00;99.90
51655;DHT22;37732;53.106;7.030;2023-12-14T15:48:29;5.00;99.90
51655;DHT22;37732;53.106;7.030;2023-12-14T15:50:55;5.00;99.90
51655;DHT22;37732;53.106;7.030;2023-12-14T15:53:20;5.00;99.90
51655;DHT22;37732;53.106;7.030;2023-12-14T15:55:46;5.00;99.90
51655;DHT22;37732;53.106;7.030;2023-12-14T15:58:12;5.00;99.90
51655;DHT22;37732;53.106;7.030;2023-12-14T16:00:38;5.00;99.90